sensor_id;sensor_type;location;lat;lon;timestamp;pressure;altitude;pressure_sealevel;temperature;humidity
9969;BME280;5025;48.890;9.278;2023-07-13T00:00:35;98685.00;;;21.65;47.32
9969;BME280;5025;48.890;9.278;2023-07-13T00:03:01;98681.66;;;21.69;47.36
9969;BME280;5025;48.890;9.278;2023-07-13T00:05:26;98680.75;;;21.73;47.26
9969;BME280;5025;48.890;9.278;2023-07-13T00:07:52;98680.84;;;21.68;46.98
9969;BME280;5025;48.890;9.278;2023-07-13T00:10:17;98684.22;;;21.65;47.32
9969;BME280;5025;48.890;9.278;2023-07-13T00:12:44;98673.63;;;21.58;47.64
9969;BME280;5025;48.890;9.278;2023-07-13T00:15:24;98684.00;;;21.75;47.27
9969;BME280;5025;48.890;9.278;2023-07-13T00:17:52;98676.69;;;21.71;47.28
9969;BME280;5025;48.890;9.278;2023-07-13T00:20:18;98677.59;;;21.66;47.53
9969;BME280;5025;48.890;9.278;2023-07-13T00:22:43;98677.06;;;21.64;47.68
9969;BME280;5025;48.890;9.278;2023-07-13T00:25:10;98681.75;;;21.63;47.57
9969;BME280;5025;48.890;9.278;2023-07-13T00:27:36;98669.13;;;21.62;47.74
9969;BME280;5025;48.890;9.278;2023-07-13T00:30:01;98673.72;;;21.67;47.73
9969;BME280;5025;48.890;9.278;2023-07-13T00:32:28;98679.00;;;21.63;48.04
9969;BME280;5025;48.890;9.278;2023-07-13T00:34:54;98675.03;;;21.56;48.22
9969;BME280;5025;48.890;9.278;2023-07-13T00:37:19;98661.25;;;21.42;48.73
9969;BME280;5025;48.890;9.278;2023-07-13T00:39:44;98667.66;;;21.37;48.98
9969;BME280;5025;48.890;9.278;2023-07-13T00:42:10;98675.78;;;21.28;48.98
9969;BME280;5025;48.890;9.278;2023-07-13T00:44:36;98679.25;;;21.34;49.48
9969;BME280;5025;48.890;9.278;2023-07-13T00:47:01;98680.16;;;21.29;49.32
9969;BME280;5025;48.890;9.278;2023-07-13T00:49:28;98679.31;;;21.15;49.56
9969;BME280;5025;48.890;9.278;2023-07-13T00:52:04;98677.81;;;21.23;49.71
9969;BME280;5025;48.890;9.278;2023-07-13T00:54:35;98684.53;;;21.30;49.46
9969;BME280;5025;48.890;9.278;2023-07-13T00:57:04;98687.00;;;21.32;49.26
9969;BME280;5025;48.890;9.278;2023-07-13T00:59:31;98688.28;;;21.35;49.40
9969;BME280;5025;48.890;9.278;2023-07-13T01:01:57;98689.94;;;21.36;49.29
9969;BME280;5025;48.890;9.278;2023-07-13T01:04:24;98693.13;;;21.43;48.82
9969;BME280;5025;48.890;9.278;2023-07-13T01:06:50;98698.06;;;21.41;48.90
9969;BME280;5025;48.890;9.278;2023-07-13T01:09:15;98696.16;;;21.41;48.78
9969;BME280;5025;48.890;9.278;2023-07-13T01:11:41;98701.56;;;21.46;48.82
9969;BME280;5025;48.890;9.278;2023-07-13T01:14:06;98700.97;;;21.49;48.69
9969;BME280;5025;48.890;9.278;2023-07-13T01:16:34;98699.13;;;21.45;48.65
9969;BME280;5025;48.890;9.278;2023-07-13T01:19:00;98700.03;;;21.40;48.56
9969;BME280;5025;48.890;9.278;2023-07-13T01:21:32;98699.28;;;21.35;48.68
9969;BME280;5025;48.890;9.278;2023-07-13T01:23:57;98698.34;;;21.25;48.62
9969;BME280;5025;48.890;9.278;2023-07-13T01:26:23;98703.53;;;21.27;48.65
9969;BME280;5025;48.890;9.278;2023-07-13T01:28:48;98701.81;;;21.31;48.59
9969;BME280;5025;48.890;9.278;2023-07-13T01:31:14;98704.06;;;21.29;48.86
9969;BME280;5025;48.890;9.278;2023-07-13T01:33:40;98699.69;;;21.28;48.93
9969;BME280;5025;48.890;9.278;2023-07-13T01:36:07;98708.53;;;21.25;48.79
9969;BME280;5025;48.890;9.278;2023-07-13T01:38:32;98714.81;;;21.25;48.94
9969;BME280;5025;48.890;9.278;2023-07-13T01:40:58;98716.47;;;21.26;48.62
9969;BME280;5025;48.890;9.278;2023-07-13T01:43:24;98714.03;;;21.25;48.73
9969;BME280;5025;48.890;9.278;2023-07-13T01:45:49;98717.38;;;21.22;48.93
9969;BME280;5025;48.890;9.278;2023-07-13T01:48:14;98725.16;;;21.14;49.00
9969;BME280;5025;48.890;9.278;2023-07-13T01:50:40;98724.75;;;21.07;49.39
9969;BME280;5025;48.890;9.278;2023-07-13T01:53:05;98719.41;;;20.97;49.55
9969;BME280;5025;48.890;9.278;2023-07-13T01:55:31;98723.06;;;20.92;49.71
9969;BME280;5025;48.890;9.278;2023-07-13T01:57:56;98719.97;;;20.80;50.18
9969;BME280;5025;48.890;9.278;2023-07-13T02:00:22;98718.03;;;20.81;50.46
9969;BME280;5025;48.890;9.278;2023-07-13T02:02:47;98721.31;;;20.83;50.54
9969;BME280;5025;48.890;9.278;2023-07-13T02:05:13;98722.66;;;20.85;50.56
9969;BME280;5025;48.890;9.278;2023-07-13T02:07:39;98724.25;;;20.86;50.86
9969;BME280;5025;48.890;9.278;2023-07-13T02:10:06;98726.19;;;20.86;50.81
9969;BME280;5025;48.890;9.278;2023-07-13T02:12:31;98727.28;;;20.85;50.16
9969;BME280;5025;48.890;9.278;2023-07-13T02:14:57;98731.19;;;20.84;50.63
9969;BME280;5025;48.890;9.278;2023-07-13T02:17:22;98735.03;;;20.83;50.24
9969;BME280;5025;48.890;9.278;2023-07-13T02:19:47;98740.22;;;20.84;50.29
9969;BME280;5025;48.890;9.278;2023-07-13T02:22:12;98736.66;;;20.84;50.35
9969;BME280;5025;48.890;9.278;2023-07-13T02:24:38;98733.91;;;20.84;50.27
9969;BME280;5025;48.890;9.278;2023-07-13T02:27:03;98733.91;;;20.84;50.23
9969;BME280;5025;48.890;9.278;2023-07-13T02:29:29;98735.84;;;20.83;50.38
9969;BME280;5025;48.890;9.278;2023-07-13T02:31:54;98729.03;;;20.81;50.30
9969;BME280;5025;48.890;9.278;2023-07-13T02:34:19;98732.38;;;20.77;50.39
9969;BME280;5025;48.890;9.278;2023-07-13T02:36:45;98726.63;;;20.74;50.41
9969;BME280;5025;48.890;9.278;2023-07-13T02:39:12;98735.47;;;20.71;50.36
9969;BME280;5025;48.890;9.278;2023-07-13T02:41:37;98730.28;;;20.69;50.21
9969;BME280;5025;48.890;9.278;2023-07-13T02:44:03;98735.75;;;20.69;50.39
9969;BME280;5025;48.890;9.278;2023-07-13T02:46:33;98745.41;;;20.67;50.57
9969;BME280;5025;48.890;9.278;2023-07-13T02:48:59;98737.75;;;20.64;50.32
9969;BME280;5025;48.890;9.278;2023-07-13T02:51:24;98738.34;;;20.60;50.59
9969;BME280;5025;48.890;9.278;2023-07-13T02:53:49;98744.41;;;20.57;50.62
9969;BME280;5025;48.890;9.278;2023-07-13T02:56:15;98738.97;;;20.52;50.53
9969;BME280;5025;48.890;9.278;2023-07-13T02:58:40;98749.22;;;20.47;50.74
9969;BME280;5025;48.890;9.278;2023-07-13T03:01:10;98745.13;;;20.44;50.90
9969;BME280;5025;48.890;9.278;2023-07-13T03:03:36;98746.84;;;20.40;51.15
9969;BME280;5025;48.890;9.278;2023-07-13T03:06:03;98754.84;;;20.36;51.16
9969;BME280;5025;48.890;9.278;2023-07-13T03:08:30;98754.63;;;20.33;51.43
9969;BME280;5025;48.890;9.278;2023-07-13T03:11:03;98759.56;;;20.31;51.43
9969;BME280;5025;48.890;9.278;2023-07-13T03:13:30;98753.34;;;20.25;51.51
9969;BME280;5025;48.890;9.278;2023-07-13T03:15:55;98752.28;;;20.21;51.44
9969;BME280;5025;48.890;9.278;2023-07-13T03:18:20;98760.00;;;20.19;51.63
9969;BME280;5025;48.890;9.278;2023-07-13T03:20:45;98758.38;;;20.18;51.50
9969;BME280;5025;48.890;9.278;2023-07-13T03:23:11;98760.00;;;20.19;51.55
9969;BME280;5025;48.890;9.278;2023-07-13T03:25:36;98760.31;;;20.17;51.42
9969;BME280;5025;48.890;9.278;2023-07-13T03:28:01;98766.38;;;20.14;51.71
9969;BME280;5025;48.890;9.278;2023-07-13T03:30:26;98769.69;;;20.11;51.64
9969;BME280;5025;48.890;9.278;2023-07-13T03:32:52;98770.78;;;20.10;51.71
9969;BME280;5025;48.890;9.278;2023-07-13T03:35:17;98770.28;;;20.08;51.97
9969;BME280;5025;48.890;9.278;2023-07-13T03:37:42;98779.59;;;20.07;51.88
9969;BME280;5025;48.890;9.278;2023-07-13T03:40:09;98785.88;;;20.08;52.18
9969;BME280;5025;48.890;9.278;2023-07-13T03:42:35;98787.81;;;20.07;52.26
9969;BME280;5025;48.890;9.278;2023-07-13T03:45:00;98794.41;;;20.06;52.16
9969;BME280;5025;48.890;9.278;2023-07-13T03:47:26;98792.22;;;20.08;52.31
9969;BME280;5025;48.890;9.278;2023-07-13T03:49:51;98791.09;;;20.09;52.40
9969;BME280;5025;48.890;9.278;2023-07-13T03:52:16;98797.69;;;20.08;51.90
9969;BME280;5025;48.890;9.278;2023-07-13T03:54:41;98806.22;;;20.06;52.25
9969;BME280;5025;48.890;9.278;2023-07-13T03:57:08;98808.69;;;20.03;52.28
9969;BME280;5025;48.890;9.278;2023-07-13T03:59:33;98802.09;;;20.04;51.93
9969;BME280;5025;48.890;9.278;2023-07-13T04:01:58;98808.97;;;20.01;52.33
9969;BME280;5025;48.890;9.278;2023-07-13T04:04:24;98803.28;;;19.98;52.58
9969;BME280;5025;48.890;9.278;2023-07-13T04:06:49;98802.78;;;19.91;52.45
9969;BME280;5025;48.890;9.278;2023-07-13T04:09:14;98803.03;;;19.94;52.27
9969;BME280;5025;48.890;9.278;2023-07-13T04:11:39;98812.59;;;19.97;52.45
9969;BME280;5025;48.890;9.278;2023-07-13T04:14:05;98805.44;;;20.01;52.19
9969;BME280;5025;48.890;9.278;2023-07-13T04:16:31;98810.34;;;20.04;52.21
9969;BME280;5025;48.890;9.278;2023-07-13T04:18:56;98807.59;;;20.04;52.24
9969;BME280;5025;48.890;9.278;2023-07-13T04:21:29;98801.00;;;20.05;52.33
9969;BME280;5025;48.890;9.278;2023-07-13T04:23:55;98803.97;;;20.09;51.99
9969;BME280;5025;48.890;9.278;2023-07-13T04:26:21;98812.50;;;20.07;52.13
9969;BME280;5025;48.890;9.278;2023-07-13T04:28:47;98807.00;;;20.07;51.99
9969;BME280;5025;48.890;9.278;2023-07-13T04:31:13;98807.81;;;20.08;52.12
9969;BME280;5025;48.890;9.278;2023-07-13T04:33:39;98813.84;;;20.10;52.02
9969;BME280;5025;48.890;9.278;2023-07-13T04:36:05;98809.47;;;20.09;52.07
9969;BME280;5025;48.890;9.278;2023-07-13T04:38:32;98813.88;;;20.04;52.34
9969;BME280;5025;48.890;9.278;2023-07-13T04:41:00;98811.44;;;20.03;52.43
9969;BME280;5025;48.890;9.278;2023-07-13T04:43:26;98813.38;;;20.02;52.52
9969;BME280;5025;48.890;9.278;2023-07-13T04:45:52;98820.78;;;20.02;52.43
9969;BME280;5025;48.890;9.278;2023-07-13T04:48:18;98822.41;;;20.03;52.57
9969;BME280;5025;48.890;9.278;2023-07-13T04:50:44;98820.78;;;20.02;52.94
9969;BME280;5025;48.890;9.278;2023-07-13T04:53:10;98818.03;;;20.02;52.78
9969;BME280;5025;48.890;9.278;2023-07-13T04:55:36;98824.63;;;20.01;53.16
9969;BME280;5025;48.890;9.278;2023-07-13T04:58:01;98832.56;;;20.02;53.29
9969;BME280;5025;48.890;9.278;2023-07-13T05:00:28;98823.81;;;20.00;53.27
9969;BME280;5025;48.890;9.278;2023-07-13T05:02:55;98831.19;;;20.00;53.29
9969;BME280;5025;48.890;9.278;2023-07-13T05:05:21;98830.69;;;19.98;53.43
9969;BME280;5025;48.890;9.278;2023-07-13T05:07:46;98828.75;;;19.98;53.53
9969;BME280;5025;48.890;9.278;2023-07-13T05:10:11;98822.97;;;20.00;53.38
9969;BME280;5025;48.890;9.278;2023-07-13T05:12:36;98824.63;;;20.01;53.65
9969;BME280;5025;48.890;9.278;2023-07-13T05:15:03;98828.47;;;20.00;53.83
9969;BME280;5025;48.890;9.278;2023-07-13T05:17:28;98830.91;;;20.01;53.92
9969;BME280;5025;48.890;9.278;2023-07-13T05:19:53;98834.50;;;20.02;53.88
9969;BME280;5025;48.890;9.278;2023-07-13T05:22:19;98838.31;;;20.01;54.26
9969;BME280;5025;48.890;9.278;2023-07-13T05:24:44;98835.81;;;20.04;54.06
9969;BME280;5025;48.890;9.278;2023-07-13T05:27:09;98836.09;;;20.03;54.10
9969;BME280;5025;48.890;9.278;2023-07-13T05:29:35;98842.72;;;20.02;54.21
9969;BME280;5025;48.890;9.278;2023-07-13T05:32:00;98837.81;;;19.99;54.26
9969;BME280;5025;48.890;9.278;2023-07-13T05:34:25;98840.84;;;19.97;54.36
9969;BME280;5025;48.890;9.278;2023-07-13T05:36:51;98836.75;;;19.95;54.59
9969;BME280;5025;48.890;9.278;2023-07-13T05:39:17;98832.06;;;19.95;54.61
9969;BME280;5025;48.890;9.278;2023-07-13T05:41:42;98840.56;;;19.94;54.66
9969;BME280;5025;48.890;9.278;2023-07-13T05:44:08;98841.13;;;19.96;54.60
9969;BME280;5025;48.890;9.278;2023-07-13T05:46:33;98840.06;;;19.92;54.61
9969;BME280;5025;48.890;9.278;2023-07-13T05:48:58;98835.69;;;19.91;54.84
9969;BME280;5025;48.890;9.278;2023-07-13T05:51:24;98838.72;;;19.89;54.64
9969;BME280;5025;48.890;9.278;2023-07-13T05:53:49;98842.88;;;19.86;54.60
9969;BME280;5025;48.890;9.278;2023-07-13T05:56:15;98842.88;;;19.86;54.30
9969;BME280;5025;48.890;9.278;2023-07-13T05:58:40;98840.41;;;19.85;54.12
9969;BME280;5025;48.890;9.278;2023-07-13T06:01:08;98846.94;;;19.89;54.02
9969;BME280;5025;48.890;9.278;2023-07-13T06:03:34;98844.19;;;19.89;53.77
9969;BME280;5025;48.890;9.278;2023-07-13T06:06:00;98853.84;;;19.81;53.81
9969;BME280;5025;48.890;9.278;2023-07-13T06:08:26;98864.88;;;19.71;54.07
9969;BME280;5025;48.890;9.278;2023-07-13T06:10:51;98862.22;;;19.66;54.40
9969;BME280;5025;48.890;9.278;2023-07-13T06:13:17;98864.88;;;19.71;54.17
9969;BME280;5025;48.890;9.278;2023-07-13T06:15:51;98864.84;;;19.76;53.80
9969;BME280;5025;48.890;9.278;2023-07-13T06:18:16;98868.09;;;19.83;53.81
9969;BME280;5025;48.890;9.278;2023-07-13T06:20:42;98870.78;;;19.88;53.57
9969;BME280;5025;48.890;9.278;2023-07-13T06:23:07;98871.84;;;19.93;53.48
9969;BME280;5025;48.890;9.278;2023-07-13T06:25:32;98869.91;;;19.93;53.27
9969;BME280;5025;48.890;9.278;2023-07-13T06:27:57;98875.63;;;19.97;52.66
9969;BME280;5025;48.890;9.278;2023-07-13T06:30:23;98866.81;;;20.05;52.57
9969;BME280;5025;48.890;9.278;2023-07-13T06:32:49;98873.69;;;20.02;52.31
9969;BME280;5025;48.890;9.278;2023-07-13T06:35:14;98877.47;;;20.06;52.31
9969;BME280;5025;48.890;9.278;2023-07-13T06:37:39;98889.19;;;20.12;52.15
9969;BME280;5025;48.890;9.278;2023-07-13T06:40:05;98883.19;;;20.10;51.98
9969;BME280;5025;48.890;9.278;2023-07-13T06:42:31;98892.50;;;20.09;51.66
9969;BME280;5025;48.890;9.278;2023-07-13T06:44:56;98895.22;;;20.14;51.47
9969;BME280;5025;48.890;9.278;2023-07-13T06:47:21;98902.44;;;20.05;49.38
9969;BME280;5025;48.890;9.278;2023-07-13T06:49:46;98896.91;;;20.10;49.54
9969;BME280;5025;48.890;9.278;2023-07-13T06:52:12;98897.34;;;20.22;49.45
9969;BME280;5025;48.890;9.278;2023-07-13T06:54:37;98897.53;;;20.31;49.33
9969;BME280;5025;48.890;9.278;2023-07-13T06:57:03;98905.97;;;20.35;49.10
9969;BME280;5025;48.890;9.278;2023-07-13T06:59:28;98906.47;;;20.42;49.27
9969;BME280;5025;48.890;9.278;2023-07-13T07:01:53;98899.22;;;20.51;49.09
9969;BME280;5025;48.890;9.278;2023-07-13T07:04:18;98909.03;;;20.57;49.27
9969;BME280;5025;48.890;9.278;2023-07-13T07:06:44;98916.69;;;20.60;49.16
9969;BME280;5025;48.890;9.278;2023-07-13T07:09:09;98903.56;;;20.57;49.13
9969;BME280;5025;48.890;9.278;2023-07-13T07:11:35;98917.00;;;20.54;48.63
9969;BME280;5025;48.890;9.278;2023-07-13T07:14:00;98909.84;;;20.58;48.51
9969;BME280;5025;48.890;9.278;2023-07-13T07:16:25;98912.88;;;20.56;48.07
9969;BME280;5025;48.890;9.278;2023-07-13T07:18:51;98916.72;;;20.55;47.92
9969;BME280;5025;48.890;9.278;2023-07-13T07:21:17;98915.69;;;20.51;47.56
9969;BME280;5025;48.890;9.278;2023-07-13T07:23:43;98911.81;;;20.52;47.48
9969;BME280;5025;48.890;9.278;2023-07-13T07:26:09;98914.53;;;20.57;47.58
9969;BME280;5025;48.890;9.278;2023-07-13T07:28:35;98910.91;;;20.62;47.39
9969;BME280;5025;48.890;9.278;2023-07-13T07:31:00;98911.97;;;20.66;47.20
9969;BME280;5025;48.890;9.278;2023-07-13T07:33:26;98913.94;;;20.60;46.34
9969;BME280;5025;48.890;9.278;2023-07-13T07:35:52;98902.84;;;20.71;46.21
9969;BME280;5025;48.890;9.278;2023-07-13T07:38:17;98913.72;;;20.81;46.14
9969;BME280;5025;48.890;9.278;2023-07-13T07:40:43;98908.47;;;20.85;45.88
9969;BME280;5025;48.890;9.278;2023-07-13T07:43:10;98916.97;;;20.83;45.00
9969;BME280;5025;48.890;9.278;2023-07-13T07:45:36;98907.94;;;20.83;44.31
9969;BME280;5025;48.890;9.278;2023-07-13T07:48:03;98916.06;;;20.93;44.31
9969;BME280;5025;48.890;9.278;2023-07-13T07:50:28;98909.72;;;20.92;43.87
9969;BME280;5025;48.890;9.278;2023-07-13T07:52:54;98907.47;;;21.00;43.92
9969;BME280;5025;48.890;9.278;2023-07-13T07:55:21;98903.97;;;21.13;44.05
9969;BME280;5025;48.890;9.278;2023-07-13T07:57:46;98917.84;;;21.22;43.75
9969;BME280;5025;48.890;9.278;2023-07-13T08:00:12;98919.72;;;21.26;43.82
9969;BME280;5025;48.890;9.278;2023-07-13T08:02:38;98913.50;;;21.40;43.66
9969;BME280;5025;48.890;9.278;2023-07-13T08:05:03;98906.16;;;21.54;43.48
9969;BME280;5025;48.890;9.278;2023-07-13T08:07:30;98913.81;;;21.57;43.00
9969;BME280;5025;48.890;9.278;2023-07-13T08:09:56;98917.00;;;21.64;43.05
9969;BME280;5025;48.890;9.278;2023-07-13T08:12:21;98916.41;;;21.67;42.77
9969;BME280;5025;48.890;9.278;2023-07-13T08:14:50;98916.31;;;21.73;42.77
9969;BME280;5025;48.890;9.278;2023-07-13T08:17:19;98919.56;;;21.75;42.46
9969;BME280;5025;48.890;9.278;2023-07-13T08:19:44;98909.31;;;21.80;42.29
9969;BME280;5025;48.890;9.278;2023-07-13T08:22:10;98915.56;;;21.86;41.79
9969;BME280;5025;48.890;9.278;2023-07-13T08:24:35;98916.22;;;21.78;40.46
9969;BME280;5025;48.890;9.278;2023-07-13T08:27:00;98919.81;;;21.78;40.58
9969;BME280;5025;48.890;9.278;2023-07-13T08:29:26;98917.78;;;21.84;40.42
9969;BME280;5025;48.890;9.278;2023-07-13T08:31:51;98926.97;;;21.93;40.52
9969;BME280;5025;48.890;9.278;2023-07-13T08:34:16;98920.88;;;21.96;40.68
9969;BME280;5025;48.890;9.278;2023-07-13T08:36:41;98924.06;;;22.03;40.67
9969;BME280;5025;48.890;9.278;2023-07-13T08:39:07;98926.81;;;22.03;39.68
9969;BME280;5025;48.890;9.278;2023-07-13T08:41:33;98923.97;;;22.09;39.79
9969;BME280;5025;48.890;9.278;2023-07-13T08:43:59;98928.56;;;22.13;39.98
9969;BME280;5025;48.890;9.278;2023-07-13T08:46:33;98912.28;;;22.17;39.60
9969;BME280;5025;48.890;9.278;2023-07-13T08:49:06;98932.16;;;22.14;37.92
9969;BME280;5025;48.890;9.278;2023-07-13T08:51:46;98920.31;;;22.13;37.47
9969;BME280;5025;48.890;9.278;2023-07-13T08:54:32;98931.25;;;21.99;37.51
9969;BME280;5025;48.890;9.278;2023-07-13T08:57:03;98930.50;;;22.13;38.17
9969;BME280;5025;48.890;9.278;2023-07-13T08:59:34;98934.09;;;22.27;38.12
9969;BME280;5025;48.890;9.278;2023-07-13T09:02:17;98931.41;;;22.41;38.61
9969;BME280;5025;48.890;9.278;2023-07-13T09:04:54;98933.44;;;22.49;38.61
9969;BME280;5025;48.890;9.278;2023-07-13T09:07:33;98928.56;;;22.60;38.87
9969;BME280;5025;48.890;9.278;2023-07-13T09:10:18;98930.19;;;22.61;39.05
9969;BME280;5025;48.890;9.278;2023-07-13T09:15:31;98931.31;;;22.60;38.44
9969;BME280;5025;48.890;9.278;2023-07-13T09:20:45;98932.63;;;22.63;38.73
9969;BME280;5025;48.890;9.278;2023-07-13T09:23:16;98933.13;;;22.65;38.85
9969;BME280;5025;48.890;9.278;2023-07-13T09:25:45;98928.34;;;22.70;38.50
9969;BME280;5025;48.890;9.278;2023-07-13T09:28:19;98929.47;;;22.69;38.55
9969;BME280;5025;48.890;9.278;2023-07-13T09:31:02;98925.31;;;22.72;38.79
9969;BME280;5025;48.890;9.278;2023-07-13T09:33:29;98932.44;;;22.87;39.01
9969;BME280;5025;48.890;9.278;2023-07-13T09:35:57;98932.94;;;22.89;38.94
9969;BME280;5025;48.890;9.278;2023-07-13T09:38:24;98936.81;;;22.88;37.77
9969;BME280;5025;48.890;9.278;2023-07-13T09:41:01;98925.09;;;22.82;37.71
9969;BME280;5025;48.890;9.278;2023-07-13T09:43:29;98928.84;;;22.86;36.99
9969;BME280;5025;48.890;9.278;2023-07-13T09:45:55;98926.63;;;22.88;37.13
9969;BME280;5025;48.890;9.278;2023-07-13T09:48:21;98925.19;;;22.91;37.11
9969;BME280;5025;48.890;9.278;2023-07-13T09:50:46;98929.59;;;22.92;36.39
9969;BME280;5025;48.890;9.278;2023-07-13T09:53:17;98909.47;;;23.05;36.14
9969;BME280;5025;48.890;9.278;2023-07-13T09:55:45;98921.19;;;23.25;36.04
9969;BME280;5025;48.890;9.278;2023-07-13T09:58:22;98924.97;;;23.29;35.60
9969;BME280;5025;48.890;9.278;2023-07-13T10:01:02;98924.66;;;23.31;35.94
9969;BME280;5025;48.890;9.278;2023-07-13T10:03:32;98921.41;;;23.29;36.09
9969;BME280;5025;48.890;9.278;2023-07-13T10:06:16;98918.84;;;23.32;34.10
9969;BME280;5025;48.890;9.278;2023-07-13T10:08:44;98916.69;;;23.29;33.12
9969;BME280;5025;48.890;9.278;2023-07-13T10:13:46;98916.88;;;23.33;33.74
9969;BME280;5025;48.890;9.278;2023-07-13T10:16:14;98926.66;;;23.39;34.09
9969;BME280;5025;48.890;9.278;2023-07-13T10:18:46;98929.25;;;23.35;33.83
9969;BME280;5025;48.890;9.278;2023-07-13T10:21:18;98921.13;;;23.53;34.35
9969;BME280;5025;48.890;9.278;2023-07-13T10:23:48;98926.44;;;23.72;34.40
9969;BME280;5025;48.890;9.278;2023-07-13T10:26:21;98913.78;;;23.85;35.01
9969;BME280;5025;48.890;9.278;2023-07-13T10:28:52;98920.97;;;23.94;34.72
9969;BME280;5025;48.890;9.278;2023-07-13T10:31:21;98914.38;;;23.81;34.27
9969;BME280;5025;48.890;9.278;2023-07-13T10:33:46;98921.28;;;23.70;33.61
9969;BME280;5025;48.890;9.278;2023-07-13T10:36:17;98917.00;;;23.64;34.17
9969;BME280;5025;48.890;9.278;2023-07-13T10:38:46;98920.25;;;23.66;34.42
9969;BME280;5025;48.890;9.278;2023-07-13T10:41:21;98923.16;;;23.61;34.44
9969;BME280;5025;48.890;9.278;2023-07-13T10:43:51;98909.91;;;23.72;34.74
9969;BME280;5025;48.890;9.278;2023-07-13T10:46:19;98921.09;;;23.89;35.01
9969;BME280;5025;48.890;9.278;2023-07-13T10:48:49;98920.53;;;24.01;35.15
9969;BME280;5025;48.890;9.278;2023-07-13T10:51:17;98910.50;;;24.05;34.58
9969;BME280;5025;48.890;9.278;2023-07-13T10:53:46;98911.50;;;24.09;34.48
9969;BME280;5025;48.890;9.278;2023-07-13T10:56:23;98915.56;;;24.12;34.06
9969;BME280;5025;48.890;9.278;2023-07-13T10:59:02;98909.63;;;23.96;34.24
9969;BME280;5025;48.890;9.278;2023-07-13T11:04:18;98906.94;;;24.05;34.11
9969;BME280;5025;48.890;9.278;2023-07-13T11:06:47;98907.09;;;24.08;33.92
9969;BME280;5025;48.890;9.278;2023-07-13T11:09:35;98894.13;;;24.09;33.88
9969;BME280;5025;48.890;9.278;2023-07-13T11:17:49;98893.34;;;24.48;34.29
9969;BME280;5025;48.890;9.278;2023-07-13T11:22:51;98884.22;;;24.79;34.22
9969;BME280;5025;48.890;9.278;2023-07-13T11:27:46;98886.09;;;24.61;32.09
9969;BME280;5025;48.890;9.278;2023-07-13T11:35:34;98876.09;;;24.83;32.87
9969;BME280;5025;48.890;9.278;2023-07-13T11:38:02;98870.44;;;24.88;32.08
9969;BME280;5025;48.890;9.278;2023-07-13T11:40:29;98876.41;;;24.81;31.82
9969;BME280;5025;48.890;9.278;2023-07-13T11:43:01;98859.56;;;24.92;32.12
9969;BME280;5025;48.890;9.278;2023-07-13T11:45:26;98867.38;;;25.07;31.83
9969;BME280;5025;48.890;9.278;2023-07-13T11:47:53;98874.84;;;25.15;31.76
9969;BME280;5025;48.890;9.278;2023-07-13T11:50:21;98869.63;;;25.05;31.60
9969;BME280;5025;48.890;9.278;2023-07-13T11:52:48;98868.19;;;24.99;30.98
9969;BME280;5025;48.890;9.278;2023-07-13T11:55:17;98872.41;;;24.96;31.28
9969;BME280;5025;48.890;9.278;2023-07-13T11:57:50;98875.66;;;24.90;31.37
9969;BME280;5025;48.890;9.278;2023-07-13T12:00:20;98870.31;;;25.02;31.56
9969;BME280;5025;48.890;9.278;2023-07-13T12:02:49;98874.38;;;25.22;31.25
9969;BME280;5025;48.890;9.278;2023-07-13T12:05:17;98873.94;;;25.29;30.91
9969;BME280;5025;48.890;9.278;2023-07-13T12:07:43;98874.88;;;25.24;31.07
9969;BME280;5025;48.890;9.278;2023-07-13T12:12:37;98879.59;;;25.15;30.73
9969;BME280;5025;48.890;9.278;2023-07-13T12:15:07;98876.78;;;25.06;30.88
9969;BME280;5025;48.890;9.278;2023-07-13T12:17:34;98872.25;;;25.10;31.17
9969;BME280;5025;48.890;9.278;2023-07-13T12:20:21;98877.13;;;25.22;31.01
9969;BME280;5025;48.890;9.278;2023-07-13T12:22:48;98873.78;;;25.43;31.15
9969;BME280;5025;48.890;9.278;2023-07-13T12:25:15;98878.16;;;25.52;30.65
9969;BME280;5025;48.890;9.278;2023-07-13T12:27:40;98870.97;;;25.51;30.04
9969;BME280;5025;48.890;9.278;2023-07-13T12:30:24;98864.66;;;25.59;30.39
9969;BME280;5025;48.890;9.278;2023-07-13T12:35:23;98874.06;;;25.76;30.20
9969;BME280;5025;48.890;9.278;2023-07-13T12:37:48;98879.13;;;25.56;29.68
9969;BME280;5025;48.890;9.278;2023-07-13T12:40:16;98872.44;;;25.57;29.60
9969;BME280;5025;48.890;9.278;2023-07-13T12:42:49;98878.63;;;25.72;29.74
9969;BME280;5025;48.890;9.278;2023-07-13T12:45:25;98874.06;;;25.76;29.57
9969;BME280;5025;48.890;9.278;2023-07-13T12:47:54;98881.03;;;25.82;29.65
9969;BME280;5025;48.890;9.278;2023-07-13T12:50:23;98870.78;;;25.91;29.79
9969;BME280;5025;48.890;9.278;2023-07-13T12:52:56;98871.41;;;25.97;29.68
9969;BME280;5025;48.890;9.278;2023-07-13T12:55:24;98866.06;;;26.01;30.17
9969;BME280;5025;48.890;9.278;2023-07-13T12:57:54;98867.03;;;26.05;29.80
9969;BME280;5025;48.890;9.278;2023-07-13T13:00:29;98851.63;;;25.69;28.80
9969;BME280;5025;48.890;9.278;2023-07-13T13:03:02;98861.72;;;25.73;29.26
9969;BME280;5025;48.890;9.278;2023-07-13T13:05:29;98859.88;;;25.86;29.00
9969;BME280;5025;48.890;9.278;2023-07-13T13:07:55;98865.91;;;25.88;28.23
9969;BME280;5025;48.890;9.278;2023-07-13T13:10:20;98862.84;;;25.81;29.03
9969;BME280;5025;48.890;9.278;2023-07-13T13:12:46;98871.75;;;25.87;28.73
9969;BME280;5025;48.890;9.278;2023-07-13T13:15:11;98862.50;;;25.83;28.25
9969;BME280;5025;48.890;9.278;2023-07-13T13:17:37;98854.81;;;25.88;28.66
9969;BME280;5025;48.890;9.278;2023-07-13T13:20:17;98850.41;;;25.96;28.39
9969;BME280;5025;48.890;9.278;2023-07-13T13:22:43;98856.28;;;25.94;28.12
9969;BME280;5025;48.890;9.278;2023-07-13T13:25:12;98858.25;;;25.94;28.15
9969;BME280;5025;48.890;9.278;2023-07-13T13:27:39;98864.13;;;26.01;28.52
9969;BME280;5025;48.890;9.278;2023-07-13T13:30:11;98859.03;;;26.12;27.78
9969;BME280;5025;48.890;9.278;2023-07-13T13:32:41;98850.41;;;26.14;27.75
9969;BME280;5025;48.890;9.278;2023-07-13T13:35:14;98855.16;;;26.04;27.61
9969;BME280;5025;48.890;9.278;2023-07-13T13:37:39;98863.13;;;26.06;27.97
9969;BME280;5025;48.890;9.278;2023-07-13T13:40:14;98836.06;;;26.20;28.01
9969;BME280;5025;48.890;9.278;2023-07-13T13:42:40;98844.75;;;26.40;27.93
9969;BME280;5025;48.890;9.278;2023-07-13T13:45:08;98858.03;;;26.55;27.55
9969;BME280;5025;48.890;9.278;2023-07-13T13:47:34;98848.59;;;26.56;27.29
9969;BME280;5025;48.890;9.278;2023-07-13T13:50:01;98850.34;;;26.61;27.55
9969;BME280;5025;48.890;9.278;2023-07-13T13:52:26;98841.19;;;26.69;27.64
9969;BME280;5025;48.890;9.278;2023-07-13T13:54:52;98852.16;;;26.65;27.53